sensor_id;sensor_type;location;lat;lon;timestamp;temperature;humidity
19385;DHT22;9828;54.122;17.974;2023-02-28T00:03:07;-2.50;99.90
19385;DHT22;9828;54.122;17.974;2023-02-28T00:08:28;-2.50;99.90
19385;DHT22;9828;54.122;17.974;2023-02-28T00:13:49;-2.60;99.90
19385;DHT22;9828;54.122;17.974;2023-02-28T00:19:10;-2.60;99.90
19385;DHT22;9828;54.122;17.974;2023-02-28T00:24:34;-2.70;99.90
19385;DHT22;9828;54.122;17.974;2023-02-28T00:29:55;-2.80;99.90
19385;DHT22;9828;54.122;17.974;2023-02-28T00:35:16;-2.70;99.90
19385;DHT22;9828;54.122;17.974;2023-02-28T00:40:38;-2.80;99.90
19385;DHT22;9828;54.122;17.974;2023-02-28T00:51:20;-3.00;99.90
19385;DHT22;9828;54.122;17.974;2023-02-28T00:56:42;-3.00;99.90
19385;DHT22;9828;54.122;17.974;2023-02-28T01:02:02;-3.00;99.90
19385;DHT22;9828;54.122;17.974;2023-02-28T01:07:24;-3.00;99.90
19385;DHT22;9828;54.122;17.974;2023-02-28T01:12:45;-3.10;99.90
19385;DHT22;9828;54.122;17.974;2023-02-28T01:18:08;-3.20;99.90
19385;DHT22;9828;54.122;17.974;2023-02-28T01:23:30;-3.20;99.90
19385;DHT22;9828;54.122;17.974;2023-02-28T01:28:53;-3.20;99.90
19385;DHT22;9828;54.122;17.974;2023-02-28T01:34:14;-3.20;99.90
19385;DHT22;9828;54.122;17.974;2023-02-28T01:39:36;-3.20;99.90
19385;DHT22;9828;54.122;17.974;2023-02-28T01:45:19;-3.20;99.90
19385;DHT22;9828;54.122;17.974;2023-02-28T01:50:44;-3.20;99.90
19385;DHT22;9828;54.122;17.974;2023-02-28T01:56:08;-3.20;99.90
19385;DHT22;9828;54.122;17.974;2023-02-28T02:01:31;-3.30;99.90
19385;DHT22;9828;54.122;17.974;2023-02-28T02:06:54;-3.40;99.90
19385;DHT22;9828;54.122;17.974;2023-02-28T02:12:47;-3.40;99.90
19385;DHT22;9828;54.122;17.974;2023-02-28T02:35:15;-3.50;99.90
19385;DHT22;9828;54.122;17.974;2023-02-28T02:41:39;-3.60;99.90
19385;DHT22;9828;54.122;17.974;2023-02-28T02:46:43;-3.50;99.90
19385;DHT22;9828;54.122;17.974;2023-02-28T02:52:10;-3.60;99.90
19385;DHT22;9828;54.122;17.974;2023-02-28T02:57:41;-3.50;99.90
19385;DHT22;9828;54.122;17.974;2023-02-28T03:03:08;-3.50;99.90
19385;DHT22;9828;54.122;17.974;2023-02-28T03:08:35;-3.50;99.90
19385;DHT22;9828;54.122;17.974;2023-02-28T03:25:10;-3.60;99.90
19385;DHT22;9828;54.122;17.974;2023-02-28T03:30:53;-3.60;99.90
19385;DHT22;9828;54.122;17.974;2023-02-28T03:36:19;-3.70;99.90
19385;DHT22;9828;54.122;17.974;2023-02-28T03:41:48;-3.70;99.90
19385;DHT22;9828;54.122;17.974;2023-02-28T03:47:24;-3.80;99.90
19385;DHT22;9828;54.122;17.974;2023-02-28T03:52:56;-3.80;99.90
19385;DHT22;9828;54.122;17.974;2023-02-28T03:58:37;-3.70;99.90
19385;DHT22;9828;54.122;17.974;2023-02-28T04:04:00;-3.70;99.90
19385;DHT22;9828;54.122;17.974;2023-02-28T04:09:22;-3.70;99.90
19385;DHT22;9828;54.122;17.974;2023-02-28T04:14:44;-3.70;99.90
19385;DHT22;9828;54.122;17.974;2023-02-28T04:20:06;-3.80;99.90
19385;DHT22;9828;54.122;17.974;2023-02-28T04:25:30;-3.80;99.90
19385;DHT22;9828;54.122;17.974;2023-02-28T04:30:56;-3.90;99.90
19385;DHT22;9828;54.122;17.974;2023-02-28T04:36:18;-3.90;99.90
19385;DHT22;9828;54.122;17.974;2023-02-28T04:41:40;-3.90;99.90
19385;DHT22;9828;54.122;17.974;2023-02-28T04:47:01;-3.90;99.90
19385;DHT22;9828;54.122;17.974;2023-02-28T04:52:22;-4.00;99.90
19385;DHT22;9828;54.122;17.974;2023-02-28T04:57:44;-3.90;99.90
19385;DHT22;9828;54.122;17.974;2023-02-28T05:03:05;-3.90;99.90
19385;DHT22;9828;54.122;17.974;2023-02-28T05:08:26;-3.90;99.90
19385;DHT22;9828;54.122;17.974;2023-02-28T05:13:51;-4.00;99.90
19385;DHT22;9828;54.122;17.974;2023-02-28T05:19:12;-4.00;99.90
19385;DHT22;9828;54.122;17.974;2023-02-28T05:24:33;-4.00;99.90
19385;DHT22;9828;54.122;17.974;2023-02-28T05:29:55;-4.00;99.90
19385;DHT22;9828;54.122;17.974;2023-02-28T05:35:16;-4.10;99.90
19385;DHT22;9828;54.122;17.974;2023-02-28T05:40:38;-4.10;99.90
19385;DHT22;9828;54.122;17.974;2023-02-28T05:46:05;-4.00;99.90
19385;DHT22;9828;54.122;17.974;2023-02-28T05:51:27;-4.10;99.90
19385;DHT22;9828;54.122;17.974;2023-02-28T05:56:48;-4.10;99.90
19385;DHT22;9828;54.122;17.974;2023-02-28T06:02:15;-4.10;99.90
19385;DHT22;9828;54.122;17.974;2023-02-28T06:07:36;-4.10;99.90
19385;DHT22;9828;54.122;17.974;2023-02-28T06:13:00;-4.00;99.90
19385;DHT22;9828;54.122;17.974;2023-02-28T06:18:23;-3.90;99.90
19385;DHT22;9828;54.122;17.974;2023-02-28T06:23:44;-3.70;99.90
19385;DHT22;9828;54.122;17.974;2023-02-28T06:29:06;-3.70;99.90
19385;DHT22;9828;54.122;17.974;2023-02-28T06:34:27;-3.60;99.90
19385;DHT22;9828;54.122;17.974;2023-02-28T06:39:48;-3.40;99.90
19385;DHT22;9828;54.122;17.974;2023-02-28T06:45:10;-3.10;99.90
19385;DHT22;9828;54.122;17.974;2023-02-28T06:50:32;-2.80;99.90
19385;DHT22;9828;54.122;17.974;2023-02-28T06:55:54;-1.10;99.90
19385;DHT22;9828;54.122;17.974;2023-02-28T07:01:15;0.90;99.50
19385;DHT22;9828;54.122;17.974;2023-02-28T07:06:37;2.50;91.90
19385;DHT22;9828;54.122;17.974;2023-02-28T07:11:58;3.30;72.80
19385;DHT22;9828;54.122;17.974;2023-02-28T07:17:21;3.70;48.80
19385;DHT22;9828;54.122;17.974;2023-02-28T07:22:42;3.60;53.00
19385;DHT22;9828;54.122;17.974;2023-02-28T07:28:03;3.90;52.60
19385;DHT22;9828;54.122;17.974;2023-02-28T07:33:24;4.60;45.10
19385;DHT22;9828;54.122;17.974;2023-02-28T07:38:47;5.40;40.10
19385;DHT22;9828;54.122;17.974;2023-02-28T07:44:11;6.60;30.40
19385;DHT22;9828;54.122;17.974;2023-02-28T07:49:32;8.20;23.10
19385;DHT22;9828;54.122;17.974;2023-02-28T07:54:53;9.30;19.10
19385;DHT22;9828;54.122;17.974;2023-02-28T08:00:15;9.80;16.40
19385;DHT22;9828;54.122;17.974;2023-02-28T08:05:39;10.30;15.50
19385;DHT22;9828;54.122;17.974;2023-02-28T08:11:02;10.60;14.20
19385;DHT22;9828;54.122;17.974;2023-02-28T08:16:23;10.70;13.50
19385;DHT22;9828;54.122;17.974;2023-02-28T08:21:45;11.40;12.10
19385;DHT22;9828;54.122;17.974;2023-02-28T08:27:06;11.70;11.20
19385;DHT22;9828;54.122;17.974;2023-02-28T08:32:28;11.90;11.00
19385;DHT22;9828;54.122;17.974;2023-02-28T08:37:50;12.50;9.90
19385;DHT22;9828;54.122;17.974;2023-02-28T08:43:11;12.70;9.30
19385;DHT22;9828;54.122;17.974;2023-02-28T08:48:34;13.10;8.50
19385;DHT22;9828;54.122;17.974;2023-02-28T08:54:00;13.20;8.10
19385;DHT22;9828;54.122;17.974;2023-02-28T08:59:21;13.50;7.60
19385;DHT22;9828;54.122;17.974;2023-02-28T09:04:42;13.60;7.40
19385;DHT22;9828;54.122;17.974;2023-02-28T09:10:06;13.40;7.80
19385;DHT22;9828;54.122;17.974;2023-02-28T09:15:28;13.60;7.50
19385;DHT22;9828;54.122;17.974;2023-02-28T09:20:49;13.40;7.20
19385;DHT22;9828;54.122;17.974;2023-02-28T09:26:16;12.30;8.00
19385;DHT22;9828;54.122;17.974;2023-02-28T09:31:38;11.20;9.80
19385;DHT22;9828;54.122;17.974;2023-02-28T09:36:59;10.40;11.00
19385;DHT22;9828;54.122;17.974;2023-02-28T09:42:25;10.50;10.50
19385;DHT22;9828;54.122;17.974;2023-02-28T09:47:52;11.10;10.50
19385;DHT22;9828;54.122;17.974;2023-02-28T09:53:27;11.50;9.40
19385;DHT22;9828;54.122;17.974;2023-02-28T09:59:06;12.40;7.80
19385;DHT22;9828;54.122;17.974;2023-02-28T10:16:10;13.30;6.10
19385;DHT22;9828;54.122;17.974;2023-02-28T10:22:05;13.20;6.40
19385;DHT22;9828;54.122;17.974;2023-02-28T10:27:33;13.10;5.90
19385;DHT22;9828;54.122;17.974;2023-02-28T10:32:55;13.40;5.10
19385;DHT22;9828;54.122;17.974;2023-02-28T10:38:26;14.00;4.70
19385;DHT22;9828;54.122;17.974;2023-02-28T10:43:48;13.90;3.80
19385;DHT22;9828;54.122;17.974;2023-02-28T10:49:20;14.10;3.80
19385;DHT22;9828;54.122;17.974;2023-02-28T10:54:41;14.60;3.90
19385;DHT22;9828;54.122;17.974;2023-02-28T11:00:21;14.40;3.40
19385;DHT22;9828;54.122;17.974;2023-02-28T11:05:46;15.00;2.80
19385;DHT22;9828;54.122;17.974;2023-02-28T11:11:09;15.30;2.90
19385;DHT22;9828;54.122;17.974;2023-02-28T11:16:36;15.70;1.90
19385;DHT22;9828;54.122;17.974;2023-02-28T11:22:03;15.10;1.00
19385;DHT22;9828;54.122;17.974;2023-02-28T11:32:52;15.50;1.10
19385;DHT22;9828;54.122;17.974;2023-02-28T11:38:13;15.50;1.00
19385;DHT22;9828;54.122;17.974;2023-02-28T11:55:14;16.40;1.00
19385;DHT22;9828;54.122;17.974;2023-02-28T12:06:23;15.50;1.00
19385;DHT22;9828;54.122;17.974;2023-02-28T12:11:56;16.30;1.00
19385;DHT22;9828;54.122;17.974;2023-02-28T12:28:40;14.80;1.00
19385;DHT22;9828;54.122;17.974;2023-02-28T12:34:07;15.20;1.00
19385;DHT22;9828;54.122;17.974;2023-02-28T12:39:34;15.50;1.00
19385;DHT22;9828;54.122;17.974;2023-02-28T12:45:16;15.70;1.00
19385;DHT22;9828;54.122;17.974;2023-02-28T12:50:40;15.60;1.00
19385;DHT22;9828;54.122;17.974;2023-02-28T12:56:09;15.60;1.00
19385;DHT22;9828;54.122;17.974;2023-02-28T13:12:48;14.70;1.00
19385;DHT22;9828;54.122;17.974;2023-02-28T13:18:35;14.30;1.00
19385;DHT22;9828;54.122;17.974;2023-02-28T13:24:01;14.00;1.00
19385;DHT22;9828;54.122;17.974;2023-02-28T13:29:34;14.10;1.00
19385;DHT22;9828;54.122;17.974;2023-02-28T13:40:29;14.00;1.00
19385;DHT22;9828;54.122;17.974;2023-02-28T13:46:08;14.30;1.00
19385;DHT22;9828;54.122;17.974;2023-02-28T13:51:48;14.30;1.00
19385;DHT22;9828;54.122;17.974;2023-02-28T13:57:40;14.70;1.00
19385;DHT22;9828;54.122;17.974;2023-02-28T14:08:35;13.20;2.20
19385;DHT22;9828;54.122;17.974;2023-02-28T14:13:57;12.20;3.20
19385;DHT22;9828;54.122;17.974;2023-02-28T14:19:30;11.90;3.70
19385;DHT22;9828;54.122;17.974;2023-02-28T14:31:00;10.00;5.90
19385;DHT22;9828;54.122;17.974;2023-02-28T14:36:27;9.30;7.50
19385;DHT22;9828;54.122;17.974;2023-02-28T14:41:53;8.70;8.60
19385;DHT22;9828;54.122;17.974;2023-02-28T14:47:15;8.30;9.30
19385;DHT22;9828;54.122;17.974;2023-02-28T14:52:37;7.90;9.80
19385;DHT22;9828;54.122;17.974;2023-02-28T14:58:00;7.60;10.50
19385;DHT22;9828;54.122;17.974;2023-02-28T15:03:38;7.50;11.10
19385;DHT22;9828;54.122;17.974;2023-02-28T15:09:17;7.20;11.20
19385;DHT22;9828;54.122;17.974;2023-02-28T15:14:43;7.00;11.30
19385;DHT22;9828;54.122;17.974;2023-02-28T15:20:05;6.90;12.30
19385;DHT22;9828;54.122;17.974;2023-02-28T15:25:26;6.80;12.90
19385;DHT22;9828;54.122;17.974;2023-02-28T15:31:00;6.80;13.40
19385;DHT22;9828;54.122;17.974;2023-02-28T15:36:28;6.80;13.30
19385;DHT22;9828;54.122;17.974;2023-02-28T15:41:50;6.70;13.90
19385;DHT22;9828;54.122;17.974;2023-02-28T15:47:19;6.60;14.20
19385;DHT22;9828;54.122;17.974;2023-02-28T15:52:43;6.50;14.30
19385;DHT22;9828;54.122;17.974;2023-02-28T15:58:04;6.40;14.20
19385;DHT22;9828;54.122;17.974;2023-02-28T16:03:39;6.20;14.10
19385;DHT22;9828;54.122;17.974;2023-02-28T16:09:03;6.10;15.00
19385;DHT22;9828;54.122;17.974;2023-02-28T16:14:26;6.00;15.40
19385;DHT22;9828;54.122;17.974;2023-02-28T16:19:59;5.90;15.50
19385;DHT22;9828;54.122;17.974;2023-02-28T16:25:33;5.70;15.70
19385;DHT22;9828;54.122;17.974;2023-02-28T16:30:55;5.60;16.40
19385;DHT22;9828;54.122;17.974;2023-02-28T16:36:25;5.50;16.70
19385;DHT22;9828;54.122;17.974;2023-02-28T16:41:48;5.50;16.80
19385;DHT22;9828;54.122;17.974;2023-02-28T16:47:10;5.30;17.50
19385;DHT22;9828;54.122;17.974;2023-02-28T16:52:32;5.10;18.30
19385;DHT22;9828;54.122;17.974;2023-02-28T16:57:57;5.10;18.70
19385;DHT22;9828;54.122;17.974;2023-02-28T17:03:36;4.90;19.40
19385;DHT22;9828;54.122;17.974;2023-02-28T17:08:58;4.80;19.90
19385;DHT22;9828;54.122;17.974;2023-02-28T17:14:20;4.80;19.30
19385;DHT22;9828;54.122;17.974;2023-02-28T17:19:41;4.60;1.00
19385;DHT22;9828;54.122;17.974;2023-02-28T17:25:05;4.50;1.00
19385;DHT22;9828;54.122;17.974;2023-02-28T17:30:28;4.40;1.00
19385;DHT22;9828;54.122;17.974;2023-02-28T17:35:49;4.40;1.00
19385;DHT22;9828;54.122;17.974;2023-02-28T17:41:11;4.30;1.00
19385;DHT22;9828;54.122;17.974;2023-02-28T17:46:33;4.10;1.00
19385;DHT22;9828;54.122;17.974;2023-02-28T17:51:54;4.10;1.00
19385;DHT22;9828;54.122;17.974;2023-02-28T17:57:15;3.90;1.00
19385;DHT22;9828;54.122;17.974;2023-02-28T18:02:37;3.70;1.00
19385;DHT22;9828;54.122;17.974;2023-02-28T18:07:58;3.70;1.00
19385;DHT22;9828;54.122;17.974;2023-02-28T18:13:21;3.70;1.00
19385;DHT22;9828;54.122;17.974;2023-02-28T18:18:43;3.60;1.00
19385;DHT22;9828;54.122;17.974;2023-02-28T18:24:04;3.60;1.00
19385;DHT22;9828;54.122;17.974;2023-02-28T18:29:26;3.60;1.00
19385;DHT22;9828;54.122;17.974;2023-02-28T18:34:48;3.50;55.30
19385;DHT22;9828;54.122;17.974;2023-02-28T18:40:09;3.40;96.20
19385;DHT22;9828;54.122;17.974;2023-02-28T18:45:34;3.30;99.90
19385;DHT22;9828;54.122;17.974;2023-02-28T18:50:55;3.30;99.90
19385;DHT22;9828;54.122;17.974;2023-02-28T18:56:19;3.20;99.90
19385;DHT22;9828;54.122;17.974;2023-02-28T19:01:40;3.10;99.90
19385;DHT22;9828;54.122;17.974;2023-02-28T19:07:02;3.10;99.90
19385;DHT22;9828;54.122;17.974;2023-02-28T19:12:23;3.00;99.90
19385;DHT22;9828;54.122;17.974;2023-02-28T19:17:44;2.80;99.90
19385;DHT22;9828;54.122;17.974;2023-02-28T19:23:06;2.80;1.00
19385;DHT22;9828;54.122;17.974;2023-02-28T19:28:28;2.80;1.00
19385;DHT22;9828;54.122;17.974;2023-02-28T19:33:50;2.80;81.20
19385;DHT22;9828;54.122;17.974;2023-02-28T19:39:12;2.70;73.40
19385;DHT22;9828;54.122;17.974;2023-02-28T19:44:34;2.60;78.10
19385;DHT22;9828;54.122;17.974;2023-02-28T19:49:56;2.60;81.10
19385;DHT22;9828;54.122;17.974;2023-02-28T19:55:18;2.50;82.60
19385;DHT22;9828;54.122;17.974;2023-02-28T20:00:40;2.50;86.80
19385;DHT22;9828;54.122;17.974;2023-02-28T20:06:03;2.50;87.40
19385;DHT22;9828;54.122;17.974;2023-02-28T20:11:27;2.40;86.70
19385;DHT22;9828;54.122;17.974;2023-02-28T20:16:49;2.30;88.40
19385;DHT22;9828;54.122;17.974;2023-02-28T20:22:11;2.20;92.20
19385;DHT22;9828;54.122;17.974;2023-02-28T20:27:33;2.20;92.40
19385;DHT22;9828;54.122;17.974;2023-02-28T20:32:55;2.20;93.70
19385;DHT22;9828;54.122;17.974;2023-02-28T20:38:16;2.10;94.90
19385;DHT22;9828;54.122;17.974;2023-02-28T20:43:38;2.10;93.30
19385;DHT22;9828;54.122;17.974;2023-02-28T20:48:59;2.10;93.70
19385;DHT22;9828;54.122;17.974;2023-02-28T20:54:21;2.10;93.90
19385;DHT22;9828;54.122;17.974;2023-02-28T20:59:42;2.20;93.40
19385;DHT22;9828;54.122;17.974;2023-02-28T21:05:04;2.10;94.00
19385;DHT22;9828;54.122;17.974;2023-02-28T21:10:25;2.20;94.00
19385;DHT22;9828;54.122;17.974;2023-02-28T21:15:46;2.10;94.30
19385;DHT22;9828;54.122;17.974;2023-02-28T21:21:13;2.00;94.90
19385;DHT22;9828;54.122;17.974;2023-02-28T21:26:35;1.90;95.00
19385;DHT22;9828;54.122;17.974;2023-02-28T21:31:58;1.80;96.50
19385;DHT22;9828;54.122;17.974;2023-02-28T21:37:19;1.60;97.70
19385;DHT22;9828;54.122;17.974;2023-02-28T21:42:40;1.50;97.00
19385;DHT22;9828;54.122;17.974;2023-02-28T21:48:01;1.40;97.60
19385;DHT22;9828;54.122;17.974;2023-02-28T21:53:23;1.40;98.00
19385;DHT22;9828;54.122;17.974;2023-02-28T21:58:45;1.30;98.90
19385;DHT22;9828;54.122;17.974;2023-02-28T22:04:08;1.30;98.40
19385;DHT22;9828;54.122;17.974;2023-02-28T22:09:30;1.10;97.50
19385;DHT22;9828;54.122;17.974;2023-02-28T22:14:52;1.10;99.30
19385;DHT22;9828;54.122;17.974;2023-02-28T22:20:14;1.10;99.50
19385;DHT22;9828;54.122;17.974;2023-02-28T22:25:36;1.10;99.90
19385;DHT22;9828;54.122;17.974;2023-02-28T22:30:58;1.10;99.90
19385;DHT22;9828;54.122;17.974;2023-02-28T22:36:21;1.00;99.90
19385;DHT22;9828;54.122;17.974;2023-02-28T22:41:43;1.10;99.90
19385;DHT22;9828;54.122;17.974;2023-02-28T22:47:05;1.20;99.90
19385;DHT22;9828;54.122;17.974;2023-02-28T22:52:26;1.20;99.90
19385;DHT22;9828;54.122;17.974;2023-02-28T22:57:48;1.20;99.90
19385;DHT22;9828;54.122;17.974;2023-02-28T23:03:09;1.30;99.90
19385;DHT22;9828;54.122;17.974;2023-02-28T23:08:30;1.40;99.90
19385;DHT22;9828;54.122;17.974;2023-02-28T23:13:52;1.30;99.90
19385;DHT22;9828;54.122;17.974;2023-02-28T23:19:21;1.30;99.90
19385;DHT22;9828;54.122;17.974;2023-02-28T23:24:43;1.30;99.90
19385;DHT22;9828;54.122;17.974;2023-02-28T23:30:05;1.40;99.90
19385;DHT22;9828;54.122;17.974;2023-02-28T23:35:26;1.40;99.90
19385;DHT22;9828;54.122;17.974;2023-02-28T23:40:48;1.30;99.90
19385;DHT22;9828;54.122;17.974;2023-02-28T23:46:10;1.30;99.90
19385;DHT22;9828;54.122;17.974;2023-02-28T23:51:31;1.20;99.90
19385;DHT22;9828;54.122;17.974;2023-02-28T23:56:53;1.30;99.90
